sensor_id;sensor_type;location;lat;lon;timestamp;pressure;altitude;pressure_sealevel;temperature;humidity
12963;BME280;6546;49.882;8.666;2023-04-03T00:01:13;101088.06;;;5.99;60.23
12963;BME280;6546;49.882;8.666;2023-04-03T00:03:40;101081.16;;;6.00;60.16
12963;BME280;6546;49.882;8.666;2023-04-03T00:06:09;101080.44;;;5.85;59.43
12963;BME280;6546;49.882;8.666;2023-04-03T00:08:37;101085.22;;;5.91;59.55
12963;BME280;6546;49.882;8.666;2023-04-03T00:11:04;101089.00;;;5.86;60.05
12963;BME280;6546;49.882;8.666;2023-04-03T00:13:31;101092.50;;;5.85;60.35
12963;BME280;6546;49.882;8.666;2023-04-03T00:15:58;101095.28;;;5.81;60.25
12963;BME280;6546;49.882;8.666;2023-04-03T00:18:25;101096.28;;;5.79;60.28
12963;BME280;6546;49.882;8.666;2023-04-03T00:20:51;101092.63;;;5.70;59.99
12963;BME280;6546;49.882;8.666;2023-04-03T00:23:19;101084.50;;;5.64;61.28
12963;BME280;6546;49.882;8.666;2023-04-03T00:25:46;101089.75;;;5.62;60.76
12963;BME280;6546;49.882;8.666;2023-04-03T00:28:13;101093.66;;;5.68;60.57
12963;BME280;6546;49.882;8.666;2023-04-03T00:30:40;101093.25;;;5.61;61.59
12963;BME280;6546;49.882;8.666;2023-04-03T00:33:06;101093.25;;;5.61;61.28
12963;BME280;6546;49.882;8.666;2023-04-03T00:35:34;101094.31;;;5.59;61.21
12963;BME280;6546;49.882;8.666;2023-04-03T00:38:01;101086.03;;;5.66;61.09
12963;BME280;6546;49.882;8.666;2023-04-03T00:40:33;101094.09;;;5.62;61.47
12963;BME280;6546;49.882;8.666;2023-04-03T00:43:00;101094.31;;;5.59;61.56
12963;BME280;6546;49.882;8.666;2023-04-03T00:45:31;101090.28;;;5.55;61.59
12963;BME280;6546;49.882;8.666;2023-04-03T00:48:00;101100.03;;;5.62;61.58
12963;BME280;6546;49.882;8.666;2023-04-03T00:50:28;101099.63;;;5.56;61.37
12963;BME280;6546;49.882;8.666;2023-04-03T00:52:56;101095.84;;;5.49;61.52
12963;BME280;6546;49.882;8.666;2023-04-03T00:55:24;101102.59;;;5.50;62.14
12963;BME280;6546;49.882;8.666;2023-04-03T00:57:53;101105.78;;;5.53;61.56
12963;BME280;6546;49.882;8.666;2023-04-03T01:00:22;101106.13;;;5.49;61.57
12963;BME280;6546;49.882;8.666;2023-04-03T01:02:56;101090.59;;;5.38;62.00
12963;BME280;6546;49.882;8.666;2023-04-03T01:05:23;101106.13;;;5.49;62.11
12963;BME280;6546;49.882;8.666;2023-04-03T01:07:51;101106.81;;;5.51;61.95
12963;BME280;6546;49.882;8.666;2023-04-03T01:10:19;101101.47;;;5.54;61.57
12963;BME280;6546;49.882;8.666;2023-04-03T01:12:48;101105.19;;;5.50;61.64
12963;BME280;6546;49.882;8.666;2023-04-03T01:15:18;101101.91;;;5.48;61.83
12963;BME280;6546;49.882;8.666;2023-04-03T01:17:47;101105.09;;;5.51;61.91
12963;BME280;6546;49.882;8.666;2023-04-03T01:23:25;101101.69;;;5.51;61.79
12963;BME280;6546;49.882;8.666;2023-04-03T01:25:57;101096.34;;;5.54;62.25
12963;BME280;6546;49.882;8.666;2023-04-03T01:28:26;101094.47;;;5.56;62.45
12963;BME280;6546;49.882;8.666;2023-04-03T01:31:00;101094.47;;;5.56;62.38
12963;BME280;6546;49.882;8.666;2023-04-03T01:33:31;101104.38;;;5.62;62.23
12963;BME280;6546;49.882;8.666;2023-04-03T01:35:57;101111.25;;;5.61;62.23
12963;BME280;6546;49.882;8.666;2023-04-03T01:38:24;101104.38;;;5.62;61.36
12963;BME280;6546;49.882;8.666;2023-04-03T01:40:51;101107.22;;;5.57;61.94
12963;BME280;6546;49.882;8.666;2023-04-03T01:43:17;101105.56;;;5.56;62.70
12963;BME280;6546;49.882;8.666;2023-04-03T01:45:44;101109.50;;;5.62;62.66
12963;BME280;6546;49.882;8.666;2023-04-03T01:48:11;101110.19;;;5.64;63.47
12963;BME280;6546;49.882;8.666;2023-04-03T01:50:40;101107.22;;;5.70;62.75
12963;BME280;6546;49.882;8.666;2023-04-03T01:53:06;101103.50;;;5.74;62.23
12963;BME280;6546;49.882;8.666;2023-04-03T01:55:33;101103.31;;;5.64;62.19
12963;BME280;6546;49.882;8.666;2023-04-03T01:58:00;101113.19;;;5.70;62.22
12963;BME280;6546;49.882;8.666;2023-04-03T02:00:26;101104.03;;;5.66;62.38
12963;BME280;6546;49.882;8.666;2023-04-03T02:02:53;101107.81;;;5.73;62.36
12963;BME280;6546;49.882;8.666;2023-04-03T02:05:20;101099.94;;;5.64;62.02
12963;BME280;6546;49.882;8.666;2023-04-03T02:07:48;101110.91;;;5.66;61.92
12963;BME280;6546;49.882;8.666;2023-04-03T02:10:15;101105.56;;;5.69;62.22
12963;BME280;6546;49.882;8.666;2023-04-03T02:12:43;101110.31;;;5.75;62.17
12963;BME280;6546;49.882;8.666;2023-04-03T02:15:10;101107.44;;;5.67;61.92
12963;BME280;6546;49.882;8.666;2023-04-03T02:17:37;101119.38;;;5.55;62.37
12963;BME280;6546;49.882;8.666;2023-04-03T02:20:04;101116.25;;;5.63;62.13
12963;BME280;6546;49.882;8.666;2023-04-03T02:22:31;101107.63;;;5.64;62.72
12963;BME280;6546;49.882;8.666;2023-04-03T02:24:59;101105.56;;;5.69;62.54
12963;BME280;6546;49.882;8.666;2023-04-03T02:27:25;101109.91;;;5.68;62.34
12963;BME280;6546;49.882;8.666;2023-04-03T02:29:52;101105.91;;;5.64;62.73
12963;BME280;6546;49.882;8.666;2023-04-03T02:32:19;101110.41;;;5.61;62.94
12963;BME280;6546;49.882;8.666;2023-04-03T02:34:46;101109.31;;;5.52;62.79
12963;BME280;6546;49.882;8.666;2023-04-03T02:37:12;101107.66;;;5.51;62.76
12963;BME280;6546;49.882;8.666;2023-04-03T02:39:39;101108.91;;;5.46;62.87
12963;BME280;6546;49.882;8.666;2023-04-03T02:42:07;101100.25;;;5.47;62.81
12963;BME280;6546;49.882;8.666;2023-04-03T02:44:34;101104.25;;;5.51;63.18
12963;BME280;6546;49.882;8.666;2023-04-03T02:47:00;101097.28;;;5.65;68.19
12963;BME280;6546;49.882;8.666;2023-04-03T02:49:27;101101.06;;;5.60;62.41
12963;BME280;6546;49.882;8.666;2023-04-03T02:51:54;101095.31;;;5.56;62.45
12963;BME280;6546;49.882;8.666;2023-04-03T02:54:21;101095.50;;;5.53;63.06
12963;BME280;6546;49.882;8.666;2023-04-03T02:56:48;101101.41;;;5.43;63.04
12963;BME280;6546;49.882;8.666;2023-04-03T02:59:16;101100.25;;;5.47;63.16
12963;BME280;6546;49.882;8.666;2023-04-03T03:01:43;101103.16;;;5.29;63.17
12963;BME280;6546;49.882;8.666;2023-04-03T03:04:10;101100.88;;;5.38;63.52
12963;BME280;6546;49.882;8.666;2023-04-03T03:06:36;101096.25;;;5.43;63.77
12963;BME280;6546;49.882;8.666;2023-04-03T03:09:03;101097.69;;;5.47;64.13
12963;BME280;6546;49.882;8.666;2023-04-03T03:11:31;101104.16;;;5.52;64.04
12963;BME280;6546;49.882;8.666;2023-04-03T03:13:57;101094.63;;;5.42;63.90
12963;BME280;6546;49.882;8.666;2023-04-03T03:16:26;101094.41;;;5.45;63.89
12963;BME280;6546;49.882;8.666;2023-04-03T03:18:52;101088.44;;;5.44;63.57
12963;BME280;6546;49.882;8.666;2023-04-03T03:21:19;101087.63;;;5.44;64.15
12963;BME280;6546;49.882;8.666;2023-04-03T03:23:46;101087.13;;;5.39;64.12
12963;BME280;6546;49.882;8.666;2023-04-03T03:26:12;101088.44;;;5.44;63.83
12963;BME280;6546;49.882;8.666;2023-04-03T03:28:39;101091.22;;;5.41;64.26
12963;BME280;6546;49.882;8.666;2023-04-03T03:31:07;101101.69;;;5.38;63.79
12963;BME280;6546;49.882;8.666;2023-04-03T03:33:36;101098.91;;;5.41;63.53
12963;BME280;6546;49.882;8.666;2023-04-03T03:36:03;101094.50;;;5.43;64.29
12963;BME280;6546;49.882;8.666;2023-04-03T03:38:30;101098.44;;;5.36;64.08
12963;BME280;6546;49.882;8.666;2023-04-03T03:40:56;101090.94;;;5.33;64.42
12963;BME280;6546;49.882;8.666;2023-04-03T03:43:23;101102.31;;;5.29;64.28
12963;BME280;6546;49.882;8.666;2023-04-03T03:45:51;101090.69;;;5.23;64.77
12963;BME280;6546;49.882;8.666;2023-04-03T03:48:18;101097.69;;;5.21;64.72
12963;BME280;6546;49.882;8.666;2023-04-03T03:50:47;101095.34;;;5.18;64.41
12963;BME280;6546;49.882;8.666;2023-04-03T03:53:14;101094.63;;;5.29;64.72
12963;BME280;6546;49.882;8.666;2023-04-03T03:55:40;101092.06;;;5.29;64.87
12963;BME280;6546;49.882;8.666;2023-04-03T03:58:07;101097.69;;;5.34;65.05
12963;BME280;6546;49.882;8.666;2023-04-03T04:00:34;101097.91;;;5.31;65.04
12963;BME280;6546;49.882;8.666;2023-04-03T04:03:00;101105.81;;;5.28;65.15
12963;BME280;6546;49.882;8.666;2023-04-03T04:05:27;101104.78;;;5.30;65.09
12963;BME280;6546;49.882;8.666;2023-04-03T04:07:55;101105.94;;;5.26;64.88
12963;BME280;6546;49.882;8.666;2023-04-03T04:10:22;101107.53;;;5.27;65.04
12963;BME280;6546;49.882;8.666;2023-04-03T04:12:48;101109.63;;;5.22;65.58
12963;BME280;6546;49.882;8.666;2023-04-03T04:15:16;101113.81;;;5.23;65.40
12963;BME280;6546;49.882;8.666;2023-04-03T04:17:43;101116.00;;;5.29;65.69
12963;BME280;6546;49.882;8.666;2023-04-03T04:20:10;101111.16;;;5.25;65.37
12963;BME280;6546;49.882;8.666;2023-04-03T04:22:37;101115.88;;;5.31;65.94
12963;BME280;6546;49.882;8.666;2023-04-03T04:25:06;101104.78;;;5.30;65.90
12963;BME280;6546;49.882;8.666;2023-04-03T04:27:33;101097.69;;;5.34;65.88
12963;BME280;6546;49.882;8.666;2023-04-03T04:30:00;101098.09;;;5.28;65.88
12963;BME280;6546;49.882;8.666;2023-04-03T04:32:26;101104.28;;;5.25;65.38
12963;BME280;6546;49.882;8.666;2023-04-03T04:34:53;101106.00;;;5.25;65.83
12963;BME280;6546;49.882;8.666;2023-04-03T04:37:20;101103.16;;;5.17;65.61
12963;BME280;6546;49.882;8.666;2023-04-03T04:39:46;101112.19;;;5.22;66.02
12963;BME280;6546;49.882;8.666;2023-04-03T04:42:14;101108.88;;;5.08;65.87
12963;BME280;6546;49.882;8.666;2023-04-03T04:44:42;101110.72;;;5.18;65.94
12963;BME280;6546;49.882;8.666;2023-04-03T04:47:09;101105.72;;;5.17;65.78
12963;BME280;6546;49.882;8.666;2023-04-03T04:49:35;101103.66;;;5.09;65.48
12963;BME280;6546;49.882;8.666;2023-04-03T04:52:02;101107.88;;;5.10;65.36
12963;BME280;6546;49.882;8.666;2023-04-03T04:54:29;101107.53;;;5.15;65.51
12963;BME280;6546;49.882;8.666;2023-04-03T04:56:55;101106.94;;;5.11;65.44
12963;BME280;6546;49.882;8.666;2023-04-03T04:59:23;101110.09;;;5.02;65.65
12963;BME280;6546;49.882;8.666;2023-04-03T05:01:50;101118.00;;;4.99;65.29
12963;BME280;6546;49.882;8.666;2023-04-03T05:04:16;101116.47;;;4.97;65.44
12963;BME280;6546;49.882;8.666;2023-04-03T05:06:43;101123.75;;;5.03;65.40
12963;BME280;6546;49.882;8.666;2023-04-03T05:09:10;101124.19;;;5.09;65.81
12963;BME280;6546;49.882;8.666;2023-04-03T05:11:36;101130.03;;;5.11;65.09
12963;BME280;6546;49.882;8.666;2023-04-03T05:14:03;101130.34;;;5.07;64.70
12963;BME280;6546;49.882;8.666;2023-04-03T05:16:33;101127.88;;;5.05;64.95
12963;BME280;6546;49.882;8.666;2023-04-03T05:19:05;101137.00;;;4.97;64.89
12963;BME280;6546;49.882;8.666;2023-04-03T05:21:31;101136.78;;;5.00;64.88
12963;BME280;6546;49.882;8.666;2023-04-03T05:23:58;101140.91;;;5.02;64.90
12963;BME280;6546;49.882;8.666;2023-04-03T05:26:27;101148.41;;;5.05;65.73
12963;BME280;6546;49.882;8.666;2023-04-03T05:28:54;101141.41;;;5.07;64.74
12963;BME280;6546;49.882;8.666;2023-04-03T05:31:21;101139.47;;;5.11;65.07
12963;BME280;6546;49.882;8.666;2023-04-03T05:33:49;101143.16;;;4.94;64.17
12963;BME280;6546;49.882;8.666;2023-04-03T05:36:16;101146.00;;;4.90;64.36
12963;BME280;6546;49.882;8.666;2023-04-03T05:38:43;101147.25;;;4.97;64.52
12963;BME280;6546;49.882;8.666;2023-04-03T05:41:09;101152.06;;;5.01;64.55
12963;BME280;6546;49.882;8.666;2023-04-03T05:43:36;101149.69;;;4.86;63.98
12963;BME280;6546;49.882;8.666;2023-04-03T05:46:08;101153.22;;;4.97;64.45
12963;BME280;6546;49.882;8.666;2023-04-03T05:48:37;101155.28;;;5.05;63.95
12963;BME280;6546;49.882;8.666;2023-04-03T05:51:06;101152.28;;;4.98;63.55
12963;BME280;6546;49.882;8.666;2023-04-03T05:53:35;101157.50;;;4.84;63.84
12963;BME280;6546;49.882;8.666;2023-04-03T05:56:02;101147.47;;;4.94;63.71
12963;BME280;6546;49.882;8.666;2023-04-03T05:58:29;101159.97;;;4.98;63.48
12963;BME280;6546;49.882;8.666;2023-04-03T06:00:56;101165.91;;;4.86;63.15
12963;BME280;6546;49.882;8.666;2023-04-03T06:03:23;101168.81;;;4.94;63.32
12963;BME280;6546;49.882;8.666;2023-04-03T06:05:50;101173.84;;;4.96;62.83
12963;BME280;6546;49.882;8.666;2023-04-03T06:08:18;101173.41;;;4.89;62.77
12963;BME280;6546;49.882;8.666;2023-04-03T06:10:45;101171.09;;;5.11;62.70
12963;BME280;6546;49.882;8.666;2023-04-03T06:13:12;101181.97;;;5.15;62.33
12963;BME280;6546;49.882;8.666;2023-04-03T06:15:39;101180.50;;;4.98;62.03
12963;BME280;6546;49.882;8.666;2023-04-03T06:18:06;101180.44;;;5.12;62.35
12963;BME280;6546;49.882;8.666;2023-04-03T06:20:33;101191.41;;;5.02;61.54
12963;BME280;6546;49.882;8.666;2023-04-03T06:23:00;101192.75;;;5.07;62.00
12963;BME280;6546;49.882;8.666;2023-04-03T06:25:29;101188.16;;;5.25;61.82
12963;BME280;6546;49.882;8.666;2023-04-03T06:27:57;101192.19;;;5.29;61.61
12963;BME280;6546;49.882;8.666;2023-04-03T06:30:23;101196.50;;;5.41;62.09
12963;BME280;6546;49.882;8.666;2023-04-03T06:32:51;101198.06;;;5.56;62.08
12963;BME280;6546;49.882;8.666;2023-04-03T06:35:17;101196.44;;;5.55;61.40
12963;BME280;6546;49.882;8.666;2023-04-03T06:37:44;101203.81;;;5.60;60.75
12963;BME280;6546;49.882;8.666;2023-04-03T06:40:14;101201.34;;;5.58;60.17
12963;BME280;6546;49.882;8.666;2023-04-03T06:42:45;101202.97;;;5.72;59.98
12963;BME280;6546;49.882;8.666;2023-04-03T06:45:12;101197.78;;;5.86;59.10
12963;BME280;6546;49.882;8.666;2023-04-03T06:47:39;101201.97;;;6.12;58.00
12963;BME280;6546;49.882;8.666;2023-04-03T06:50:06;101207.56;;;6.43;57.82
12963;BME280;6546;49.882;8.666;2023-04-03T06:52:34;101210.81;;;6.08;57.37
12963;BME280;6546;49.882;8.666;2023-04-03T06:55:01;101212.66;;;6.06;58.50
12963;BME280;6546;49.882;8.666;2023-04-03T06:57:27;101213.72;;;5.91;57.75
12963;BME280;6546;49.882;8.666;2023-04-03T06:59:55;101212.97;;;5.89;57.67
12963;BME280;6546;49.882;8.666;2023-04-03T07:02:22;101220.06;;;5.86;57.92
12963;BME280;6546;49.882;8.666;2023-04-03T07:04:48;101213.78;;;6.02;57.84
12963;BME280;6546;49.882;8.666;2023-04-03T07:07:16;101217.81;;;6.06;57.47
12963;BME280;6546;49.882;8.666;2023-04-03T07:09:42;101229.16;;;5.91;57.46
12963;BME280;6546;49.882;8.666;2023-04-03T07:12:09;101220.69;;;5.89;57.83
12963;BME280;6546;49.882;8.666;2023-04-03T07:14:36;101221.09;;;6.08;58.15
12963;BME280;6546;49.882;8.666;2023-04-03T07:17:04;101228.19;;;6.05;57.49
12963;BME280;6546;49.882;8.666;2023-04-03T07:19:31;101219.47;;;6.07;57.60
12963;BME280;6546;49.882;8.666;2023-04-03T07:21:57;101231.78;;;6.15;57.07
12963;BME280;6546;49.882;8.666;2023-04-03T07:24:24;101233.84;;;6.10;57.14
12963;BME280;6546;49.882;8.666;2023-04-03T07:26:52;101236.91;;;6.27;57.20
12963;BME280;6546;49.882;8.666;2023-04-03T07:29:19;101243.94;;;6.13;55.74
12963;BME280;6546;49.882;8.666;2023-04-03T07:31:46;101241.88;;;5.93;56.33
12963;BME280;6546;49.882;8.666;2023-04-03T07:34:14;101248.09;;;5.76;56.72
12963;BME280;6546;49.882;8.666;2023-04-03T07:36:41;101239.56;;;5.75;56.63
12963;BME280;6546;49.882;8.666;2023-04-03T07:39:08;101249.88;;;5.88;56.46
12963;BME280;6546;49.882;8.666;2023-04-03T07:41:34;101251.28;;;5.67;55.85
12963;BME280;6546;49.882;8.666;2023-04-03T07:44:01;101247.59;;;5.58;56.28
12963;BME280;6546;49.882;8.666;2023-04-03T07:46:28;101261.16;;;5.60;56.22
12963;BME280;6546;49.882;8.666;2023-04-03T07:48:54;101253.13;;;5.52;56.27
12963;BME280;6546;49.882;8.666;2023-04-03T07:51:22;101253.22;;;5.51;56.13
12963;BME280;6546;49.882;8.666;2023-04-03T07:53:49;101257.75;;;5.60;56.44
12963;BME280;6546;49.882;8.666;2023-04-03T07:56:16;101261.56;;;5.79;56.06
12963;BME280;6546;49.882;8.666;2023-04-03T07:58:43;101257.25;;;5.80;55.44
12963;BME280;6546;49.882;8.666;2023-04-03T08:01:10;101263.25;;;6.06;55.23
12963;BME280;6546;49.882;8.666;2023-04-03T08:03:38;101255.75;;;6.15;54.97
12963;BME280;6546;49.882;8.666;2023-04-03T08:06:06;101259.91;;;5.78;54.16
12963;BME280;6546;49.882;8.666;2023-04-03T08:08:36;101263.03;;;5.71;54.30
12963;BME280;6546;49.882;8.666;2023-04-03T08:11:03;101248.84;;;5.65;55.52
12963;BME280;6546;49.882;8.666;2023-04-03T08:13:31;101261.19;;;5.86;55.24
12963;BME280;6546;49.882;8.666;2023-04-03T08:16:07;101254.78;;;5.78;55.06
12963;BME280;6546;49.882;8.666;2023-04-03T08:18:34;101258.53;;;5.87;54.34
12963;BME280;6546;49.882;8.666;2023-04-03T08:21:00;101258.53;;;6.00;54.61
12963;BME280;6546;49.882;8.666;2023-04-03T08:23:27;101262.63;;;6.02;55.16
12963;BME280;6546;49.882;8.666;2023-04-03T08:25:55;101260.38;;;6.10;54.46
12963;BME280;6546;49.882;8.666;2023-04-03T08:28:22;101260.50;;;5.96;53.76
12963;BME280;6546;49.882;8.666;2023-04-03T08:30:48;101264.78;;;5.83;54.46
12963;BME280;6546;49.882;8.666;2023-04-03T08:33:16;101261.28;;;5.71;54.39
12963;BME280;6546;49.882;8.666;2023-04-03T08:35:42;101248.63;;;5.81;54.53
12963;BME280;6546;49.882;8.666;2023-04-03T08:38:09;101260.56;;;5.95;54.37
12963;BME280;6546;49.882;8.666;2023-04-03T08:40:36;101255.13;;;5.99;54.09
12963;BME280;6546;49.882;8.666;2023-04-03T08:43:19;101256.25;;;5.95;53.72
12963;BME280;6546;49.882;8.666;2023-04-03T08:45:55;101255.56;;;5.93;53.86
12963;BME280;6546;49.882;8.666;2023-04-03T08:48:26;101264.91;;;6.07;54.83
12963;BME280;6546;49.882;8.666;2023-04-03T08:50:57;101253.19;;;5.90;53.15
12963;BME280;6546;49.882;8.666;2023-04-03T08:53:26;101247.22;;;6.02;53.65
12963;BME280;6546;49.882;8.666;2023-04-03T08:55:58;101260.38;;;6.10;52.99
12963;BME280;6546;49.882;8.666;2023-04-03T08:58:28;101245.16;;;6.07;53.04
12963;BME280;6546;49.882;8.666;2023-04-03T09:00:59;101245.34;;;6.04;52.61
12963;BME280;6546;49.882;8.666;2023-04-03T09:03:29;101252.34;;;6.02;52.62
12963;BME280;6546;49.882;8.666;2023-04-03T09:06:00;101250.50;;;6.04;52.69
12963;BME280;6546;49.882;8.666;2023-04-03T09:08:30;101262.22;;;6.08;52.63
12963;BME280;6546;49.882;8.666;2023-04-03T09:11:08;101244.44;;;5.93;52.59
12963;BME280;6546;49.882;8.666;2023-04-03T09:13:44;101252.69;;;5.98;52.96
12963;BME280;6546;49.882;8.666;2023-04-03T09:16:21;101261.19;;;5.98;52.80
12963;BME280;6546;49.882;8.666;2023-04-03T09:18:57;101258.31;;;6.03;52.92
12963;BME280;6546;49.882;8.666;2023-04-03T09:21:30;101255.03;;;6.13;52.33
12963;BME280;6546;49.882;8.666;2023-04-03T09:24:01;101256.25;;;6.20;51.86
12963;BME280;6546;49.882;8.666;2023-04-03T09:26:33;101243.47;;;6.31;51.51
12963;BME280;6546;49.882;8.666;2023-04-03T09:29:07;101246.41;;;6.51;51.67
12963;BME280;6546;49.882;8.666;2023-04-03T09:31:37;101252.09;;;6.56;50.07
12963;BME280;6546;49.882;8.666;2023-04-03T09:34:08;101245.50;;;6.52;49.29
12963;BME280;6546;49.882;8.666;2023-04-03T09:36:42;101250.16;;;6.70;50.13
12963;BME280;6546;49.882;8.666;2023-04-03T09:39:13;101254.50;;;6.70;48.92
12963;BME280;6546;49.882;8.666;2023-04-03T09:41:40;101242.22;;;6.37;48.75
12963;BME280;6546;49.882;8.666;2023-04-03T09:44:21;101241.22;;;6.40;49.13
12963;BME280;6546;49.882;8.666;2023-04-03T09:46:48;101235.66;;;6.33;49.28
12963;BME280;6546;49.882;8.666;2023-04-03T09:49:17;101234.63;;;6.36;48.97
12963;BME280;6546;49.882;8.666;2023-04-03T09:51:44;101227.84;;;6.34;49.27
12963;BME280;6546;49.882;8.666;2023-04-03T09:54:26;101236.59;;;6.32;49.42
12963;BME280;6546;49.882;8.666;2023-04-03T09:56:57;101233.31;;;6.30;49.83
12963;BME280;6546;49.882;8.666;2023-04-03T09:59:29;101228.69;;;6.22;50.00
12963;BME280;6546;49.882;8.666;2023-04-03T10:01:59;101228.25;;;6.28;49.80
12963;BME280;6546;49.882;8.666;2023-04-03T10:04:37;101231.72;;;6.40;49.48
12963;BME280;6546;49.882;8.666;2023-04-03T10:07:31;101229.88;;;6.66;49.92
12963;BME280;6546;49.882;8.666;2023-04-03T10:10:00;101239.22;;;6.79;49.03
12963;BME280;6546;49.882;8.666;2023-04-03T10:12:29;101234.97;;;6.91;48.71
12963;BME280;6546;49.882;8.666;2023-04-03T10:14:58;101229.97;;;6.77;48.30
12963;BME280;6546;49.882;8.666;2023-04-03T10:17:37;101222.88;;;6.92;48.01
12963;BME280;6546;49.882;8.666;2023-04-03T10:20:23;101219.28;;;6.70;46.85
12963;BME280;6546;49.882;8.666;2023-04-03T10:23:00;101233.06;;;6.69;47.83
12963;BME280;6546;49.882;8.666;2023-04-03T10:25:32;101230.22;;;6.61;47.82
12963;BME280;6546;49.882;8.666;2023-04-03T10:28:06;101238.34;;;6.68;48.88
12963;BME280;6546;49.882;8.666;2023-04-03T10:30:42;101218.25;;;6.73;47.04
12963;BME280;6546;49.882;8.666;2023-04-03T10:33:31;101225.81;;;6.87;47.82
12963;BME280;6546;49.882;8.666;2023-04-03T10:36:07;101212.66;;;6.79;47.40
12963;BME280;6546;49.882;8.666;2023-04-03T10:38:43;101218.03;;;6.76;47.05
12963;BME280;6546;49.882;8.666;2023-04-03T10:41:17;101217.34;;;6.85;47.69
12963;BME280;6546;49.882;8.666;2023-04-03T10:43:52;101213.88;;;6.86;46.84
12963;BME280;6546;49.882;8.666;2023-04-03T10:46:28;101216.28;;;7.00;46.27
12963;BME280;6546;49.882;8.666;2023-04-03T10:49:09;101210.00;;;7.15;46.27
12963;BME280;6546;49.882;8.666;2023-04-03T10:51:42;101211.56;;;7.29;46.24
12963;BME280;6546;49.882;8.666;2023-04-03T10:54:12;101217.13;;;7.12;46.24
12963;BME280;6546;49.882;8.666;2023-04-03T10:56:42;101217.81;;;7.03;46.33
12963;BME280;6546;49.882;8.666;2023-04-03T10:59:21;101218.13;;;6.98;45.98
12963;BME280;6546;49.882;8.666;2023-04-03T11:01:53;101207.81;;;6.98;46.41
12963;BME280;6546;49.882;8.666;2023-04-03T11:04:24;101221.50;;;7.22;46.58
12963;BME280;6546;49.882;8.666;2023-04-03T11:06:57;101224.78;;;7.24;46.18
12963;BME280;6546;49.882;8.666;2023-04-03T11:09:28;101216.06;;;7.14;45.48
12963;BME280;6546;49.882;8.666;2023-04-03T11:12:03;101216.06;;;7.03;45.60
12963;BME280;6546;49.882;8.666;2023-04-03T11:14:32;101211.56;;;6.94;46.32
12963;BME280;6546;49.882;8.666;2023-04-03T11:17:06;101197.75;;;6.95;46.52
12963;BME280;6546;49.882;8.666;2023-04-03T11:19:41;101206.50;;;7.16;46.30
12963;BME280;6546;49.882;8.666;2023-04-03T11:22:18;101195.06;;;7.20;45.75
12963;BME280;6546;49.882;8.666;2023-04-03T11:24:55;101192.47;;;7.20;44.94
12963;BME280;6546;49.882;8.666;2023-04-03T11:27:24;101208.31;;;7.27;45.38
12963;BME280;6546;49.882;8.666;2023-04-03T11:29:53;101173.34;;;7.12;45.06
12963;BME280;6546;49.882;8.666;2023-04-03T11:32:38;101185.03;;;7.05;44.84
12963;BME280;6546;49.882;8.666;2023-04-03T11:35:10;101184.00;;;7.07;45.34
12963;BME280;6546;49.882;8.666;2023-04-03T11:37:39;101193.63;;;7.27;44.99
12963;BME280;6546;49.882;8.666;2023-04-03T11:40:17;101189.91;;;7.31;44.40
12963;BME280;6546;49.882;8.666;2023-04-03T11:42:46;101175.81;;;7.13;43.92
12963;BME280;6546;49.882;8.666;2023-04-03T11:45:33;101173.34;;;7.12;43.29
12963;BME280;6546;49.882;8.666;2023-04-03T11:48:06;101176.78;;;7.23;44.27
12963;BME280;6546;49.882;8.666;2023-04-03T11:50:42;101173.06;;;7.38;43.66
12963;BME280;6546;49.882;8.666;2023-04-03T11:53:29;101171.66;;;7.34;43.86
12963;BME280;6546;49.882;8.666;2023-04-03T11:56:01;101167.41;;;7.33;42.92
12963;BME280;6546;49.882;8.666;2023-04-03T11:58:31;101161.34;;;7.34;43.45
12963;BME280;6546;49.882;8.666;2023-04-03T12:01:01;101173.91;;;7.50;43.33
12963;BME280;6546;49.882;8.666;2023-04-03T12:07:00;101179.50;;;7.44;41.49
12963;BME280;6546;49.882;8.666;2023-04-03T12:09:56;101157.75;;;7.48;40.24
12963;BME280;6546;49.882;8.666;2023-04-03T12:12:36;101158.09;;;7.55;40.54
12963;BME280;6546;49.882;8.666;2023-04-03T12:21:18;101148.50;;;7.79;39.57
12963;BME280;6546;49.882;8.666;2023-04-03T12:23:59;101147.78;;;7.99;39.33
12963;BME280;6546;49.882;8.666;2023-04-03T12:26:30;101145.44;;;7.96;38.76
12963;BME280;6546;49.882;8.666;2023-04-03T12:28:58;101139.34;;;7.86;37.50
12963;BME280;6546;49.882;8.666;2023-04-03T12:31:40;101142.88;;;7.85;35.90
12963;BME280;6546;49.882;8.666;2023-04-03T12:34:18;101132.91;;;7.80;34.97
12963;BME280;6546;49.882;8.666;2023-04-03T12:36:58;101133.97;;;7.89;36.38
12963;BME280;6546;49.882;8.666;2023-04-03T12:39:42;101129.97;;;8.07;35.79
12963;BME280;6546;49.882;8.666;2023-04-03T12:42:26;101129.16;;;7.96;34.39
12963;BME280;6546;49.882;8.666;2023-04-03T12:45:02;101132.56;;;7.85;32.51
12963;BME280;6546;49.882;8.666;2023-04-03T12:47:35;101127.50;;;7.72;34.01
12963;BME280;6546;49.882;8.666;2023-04-03T12:50:13;101137.72;;;7.85;33.06
12963;BME280;6546;49.882;8.666;2023-04-03T12:52:45;101122.91;;;7.98;32.94
12963;BME280;6546;49.882;8.666;2023-04-03T12:55:17;101130.94;;;7.84;33.17
12963;BME280;6546;49.882;8.666;2023-04-03T12:57:44;101116.66;;;7.69;33.30
12963;BME280;6546;49.882;8.666;2023-04-03T13:00:35;101124.13;;;7.83;31.83
12963;BME280;6546;49.882;8.666;2023-04-03T13:03:06;101124.72;;;7.86;30.77
12963;BME280;6546;49.882;8.666;2023-04-03T13:05:34;101108.41;;;7.86;31.03
12963;BME280;6546;49.882;8.666;2023-04-03T13:08:03;101111.47;;;7.91;31.26
12963;BME280;6546;49.882;8.666;2023-04-03T13:10:32;101097.88;;;7.89;30.15
12963;BME280;6546;49.882;8.666;2023-04-03T13:13:10;101116.59;;;8.13;31.96
12963;BME280;6546;49.882;8.666;2023-04-03T13:15:42;101104.13;;;8.18;31.39
12963;BME280;6546;49.882;8.666;2023-04-03T13:18:22;101120.81;;;8.03;32.16
12963;BME280;6546;49.882;8.666;2023-04-03T13:20:49;101113.91;;;7.92;32.42
12963;BME280;6546;49.882;8.666;2023-04-03T13:23:17;101114.00;;;8.02;32.55
12963;BME280;6546;49.882;8.666;2023-04-03T13:25:50;101111.22;;;7.94;33.31
12963;BME280;6546;49.882;8.666;2023-04-03T13:28:20;101102.88;;;8.02;33.51
12963;BME280;6546;49.882;8.666;2023-04-03T13:30:58;101096.22;;;7.99;34.52
12963;BME280;6546;49.882;8.666;2023-04-03T13:33:28;101096.28;;;8.20;35.09
12963;BME280;6546;49.882;8.666;2023-04-03T13:35:58;101101.78;;;8.26;34.46